Time;durP1;ratioP1;P1;durP2;ratioP2;P2;SDS_P1;SDS_P2;PMS_P1;PMS_P2;Temp;Humidity;BMP_temperature;BMP_pressure;BME280_temperature;BME280_humidity;BME280_pressure;Samples;Min_cycle;Max_cycle;Signal;HPM_P1;HPM_P2
2022/04/24 00:01:51;;;;;;;;;;;;;;;11.17;55.18;96211.81;4953545;28;19997;-51
2022/04/24 00:04:19;;;;;;;;;;;;;;;10.95;55.51;96194.25;4949062;28;20414;-52
2022/04/24 00:06:47;;;;;;;;;;;;;;;10.97;55.41;96192.00;4948584;28;19931;-52
2022/04/24 00:09:15;;;;;;;;;;;;;;;10.81;56.01;96174.13;4959883;28;19985;-52
2022/04/24 00:11:42;;;;;;;;;;;;;;;10.83;55.64;96163.72;4963603;28;19958;-52
2022/04/24 00:14:12;;;;;;;;;;;;;;;10.90;55.66;96150.28;4966674;28;20015;-52
2022/04/24 00:16:40;;;;;;;;;;;;;;;10.77;56.07;96152.34;4957116;28;19958;-51
2022/04/24 00:19:08;;;;;;;;;;;;;;;10.88;55.93;96161.50;4958589;28;19939;-52
2022/04/24 00:21:36;;;;;;;;;;;;;;;10.80;56.09;96169.84;4955473;28;20393;-52
2022/04/24 00:24:04;;;;;;;;;;;;;;;10.92;55.83;96169.72;4967564;28;20028;-52
2022/04/24 00:26:32;;;;;;;;;;;;;;;10.89;55.99;96171.22;4963813;28;19937;-52
2022/04/24 00:29:00;;;;;;;;;;;;;;;10.84;55.91;96168.00;4967507;28;19969;-51
2022/04/24 00:31:29;;;;;;;;;;;;;;;10.90;55.82;96158.44;4954074;28;19973;-52
2022/04/24 00:36:49;;;;;;;;;;;;;;;10.70;56.25;96157.59;4950919;28;19931;-51
2022/04/24 00:39:17;;;;;;;;;;;;;;;10.75;56.33;96151.91;4959467;28;19930;-49
2022/04/24 00:41:46;;;;;;;;;;;;;;;10.68;56.54;96147.09;4962777;28;20915;-50
2022/04/24 00:44:13;;;;;;;;;;;;;;;10.67;56.75;96142.81;4967306;28;19934;-50
2022/04/24 00:47:16;;;;;;;;;;;;;;;10.69;56.33;96134.31;4954266;28;19997;-51
2022/04/24 00:49:44;;;;;;;;;;;;;;;10.67;56.57;96129.25;4952187;28;20025;-51
2022/04/24 00:52:13;;;;;;;;;;;;;;;10.76;56.39;96131.75;4948392;28;19943;-50
2022/04/24 00:55:06;;;;;;;;;;;;;;;10.68;56.63;96128.09;4954196;28;19926;-52
2022/04/24 00:57:34;;;;;;;;;;;;;;;10.81;56.49;96120.59;4947279;28;19956;-51
2022/04/24 01:00:02;;;;;;;;;;;;;;;10.81;56.42;96126.03;4960939;28;19926;-51
2022/04/24 01:02:31;;;;;;;;;;;;;;;10.74;56.73;96126.66;4948312;28;19933;-51
2022/04/24 01:04:59;;;;;;;;;;;;;;;10.54;57.22;96118.84;4957975;28;20006;-51
2022/04/24 01:07:27;;;;;;;;;;;;;;;10.52;57.51;96121.91;4951991;28;19926;-51
2022/04/24 01:09:57;;;;;;;;;;;;;;;10.56;57.22;96124.72;4962396;28;19985;-51
2022/04/24 01:12:25;;;;;;;;;;;;;;;10.43;57.70;96115.88;4943205;28;20322;-51
2022/04/24 01:14:52;;;;;;;;;;;;;;;10.58;57.39;96117.00;4966634;28;20373;-49
2022/04/24 01:17:20;;;;;;;;;;;;;;;10.61;57.48;96111.66;4962530;28;20314;-50
2022/04/24 01:19:49;;;;;;;;;;;;;;;10.52;57.81;96113.00;4967604;28;20433;-51
2022/04/24 01:22:43;;;;;;;;;;;;;;;10.47;58.15;96117.53;4959440;28;20516;-51
2022/04/24 01:25:15;;;;;;;;;;;;;;;10.49;57.92;96122.63;4962945;28;20226;-51
2022/04/24 01:27:43;;;;;;;;;;;;;;;10.59;57.68;96121.28;4957721;28;19931;-51
2022/04/24 01:30:11;;;;;;;;;;;;;;;10.51;58.12;96127.72;4956156;28;19931;-52
2022/04/24 01:32:39;;;;;;;;;;;;;;;10.56;58.24;96127.44;4961135;28;19933;-50
2022/04/24 01:35:07;;;;;;;;;;;;;;;10.41;58.57;96132.53;4966632;28;20013;-52
2022/04/24 01:37:35;;;;;;;;;;;;;;;10.56;58.27;96127.44;4957629;28;19930;-51
2022/04/24 01:40:03;;;;;;;;;;;;;;;10.41;58.62;96127.09;4964487;28;19933;-51
2022/04/24 01:42:32;;;;;;;;;;;;;;;10.46;58.76;96117.91;4945900;28;20466;-51
2022/04/24 01:45:00;;;;;;;;;;;;;;;10.44;58.74;96115.56;4952271;28;20016;-50
2022/04/24 01:47:28;;;;;;;;;;;;;;;10.42;59.11;96114.31;4947782;28;19926;-51
2022/04/24 01:49:56;;;;;;;;;;;;;;;10.43;58.89;96116.66;4952996;28;19938;-50
2022/04/24 01:52:24;;;;;;;;;;;;;;;10.37;59.42;96111.88;4951663;28;19945;-50
2022/04/24 01:54:52;;;;;;;;;;;;;;;10.40;59.53;96106.53;4944034;28;20336;-50
2022/04/24 01:57:20;;;;;;;;;;;;;;;10.10;60.26;96102.69;4950634;28;20290;-50
2022/04/24 01:59:49;;;;;;;;;;;;;;;10.09;60.68;96099.19;4951810;28;19978;-50
2022/04/24 02:02:18;;;;;;;;;;;;;;;10.11;60.40;96096.91;4952145;28;19926;-50
2022/04/24 02:04:46;;;;;;;;;;;;;;;10.24;59.82;96086.78;4948644;28;19973;-50
2022/04/24 02:07:14;;;;;;;;;;;;;;;10.22;60.29;96081.66;4944299;28;19926;-51
2022/04/24 02:09:42;;;;;;;;;;;;;;;10.27;60.14;96077.91;4949810;28;19993;-50
2022/04/24 02:12:10;;;;;;;;;;;;;;;10.41;59.63;96080.97;4947466;28;20037;-50
2022/04/24 02:14:38;;;;;;;;;;;;;;;10.31;59.98;96072.59;4943757;28;19933;-51
2022/04/24 02:17:07;;;;;;;;;;;;;;;10.23;60.33;96069.72;4947816;28;19934;-50
2022/04/24 02:19:40;;;;;;;;;;;;;;;10.29;60.16;96053.94;4950870;28;19942;-50
2022/04/24 02:25:11;;;;;;;;;;;;;;;10.25;60.50;96047.66;4956370;28;20014;-49
2022/04/24 02:27:39;;;;;;;;;;;;;;;10.36;60.21;96062.22;4946310;28;20355;-50
2022/04/24 02:30:10;;;;;;;;;;;;;;;10.31;60.20;96054.38;4950502;28;19926;-51
2022/04/24 02:32:39;;;;;;;;;;;;;;;10.35;60.19;96057.94;4947279;28;20409;-51
2022/04/24 02:35:07;;;;;;;;;;;;;;;10.34;60.28;96056.38;4943948;28;19977;-50
2022/04/24 02:37:35;;;;;;;;;;;;;;;10.37;60.25;96061.09;4950256;28;20351;-50
2022/04/24 02:40:03;;;;;;;;;;;;;;;10.45;60.08;96057.41;4938870;28;20014;-50
2022/04/24 02:42:31;;;;;;;;;;;;;;;10.43;60.10;96054.22;4948997;28;20329;-50
2022/04/24 02:44:59;;;;;;;;;;;;;;;10.31;60.64;96061.72;4946082;28;20005;-50
2022/04/24 02:47:27;;;;;;;;;;;;;;;10.08;61.30;96064.28;4948588;28;19930;-48
2022/04/24 02:49:56;;;;;;;;;;;;;;;10.18;61.15;96061.03;4949645;28;19965;-50
2022/04/24 02:52:23;;;;;;;;;;;;;;;10.10;61.34;96067.44;4949302;28;20371;-49
2022/04/24 02:54:51;;;;;;;;;;;;;;;10.13;61.20;96066.72;4948544;28;19938;-50
2022/04/24 02:57:19;;;;;;;;;;;;;;;10.44;60.19;96071.34;4946746;28;19939;-50
2022/04/24 02:59:49;;;;;;;;;;;;;;;10.60;59.59;96060.41;4953319;28;19930;-51
2022/04/24 03:02:17;;;;;;;;;;;;;;;10.41;60.47;96067.38;4947729;28;19970;-50
2022/04/24 03:04:45;;;;;;;;;;;;;;;10.40;60.35;96071.25;4948503;28;20430;-51
2022/04/24 03:07:14;;;;;;;;;;;;;;;10.31;60.73;96065.22;4949300;28;19930;-51
2022/04/24 03:09:42;;;;;;;;;;;;;;;10.25;60.92;96060.44;4945403;28;20688;-51
2022/04/24 03:12:10;;;;;;;;;;;;;;;10.43;60.33;96056.16;4948940;28;19926;-51
2022/04/24 03:14:38;;;;;;;;;;;;;;;10.41;60.21;96051.09;4946663;28;19930;-50
2022/04/24 03:19:58;;;;;;;;;;;;;;;10.42;60.32;96043.75;4934400;28;19930;-51
2022/04/24 03:22:51;;;;;;;;;;;;;;;10.20;61.39;96040.53;4946457;28;20028;-51
2022/04/24 03:25:21;;;;;;;;;;;;;;;10.22;61.24;96043.66;4950617;28;19933;-52
2022/04/24 03:27:49;;;;;;;;;;;;;;;10.17;61.29;96038.53;4948994;28;19931;-50
2022/04/24 03:30:16;;;;;;;;;;;;;;;10.19;61.30;96040.88;4947547;28;20135;-52
2022/04/24 03:32:44;;;;;;;;;;;;;;;10.06;61.72;96042.13;4946575;28;19992;-51
2022/04/24 03:35:12;;;;;;;;;;;;;;;10.23;61.43;96055.34;4939229;28;20222;-51
2022/04/24 03:37:42;;;;;;;;;;;;;;;10.28;61.25;96048.84;4942707;28;19942;-51
2022/04/24 03:40:10;;;;;;;;;;;;;;;10.29;61.40;96048.50;4915263;28;902742;-51
2022/04/24 03:42:39;;;;;;;;;;;;;;;10.34;60.94;96050.16;4943356;28;20021;-53
2022/04/24 03:45:09;;;;;;;;;;;;;;;10.38;60.75;96040.94;4944080;28;19927;-51
2022/04/24 03:47:37;;;;;;;;;;;;;;;10.30;61.16;96052.78;4947098;28;19926;-51
2022/04/24 03:50:05;;;;;;;;;;;;;;;10.28;61.50;96063.22;4951646;28;20065;-52
2022/04/24 03:52:33;;;;;;;;;;;;;;;10.26;61.39;96073.63;4949215;28;20030;-51
2022/04/24 03:55:01;;;;;;;;;;;;;;;10.33;61.18;96081.94;4937441;28;20383;-50
2022/04/24 03:57:29;;;;;;;;;;;;;;;10.30;61.29;96081.88;4941101;28;19930;-50
2022/04/24 03:59:59;;;;;;;;;;;;;;;10.56;60.50;96089.41;4948536;28;20308;-51
2022/04/24 04:02:27;;;;;;;;;;;;;;;10.58;60.30;96087.13;4944140;28;20450;-52
2022/04/24 04:04:54;;;;;;;;;;;;;;;10.57;60.20;96093.72;4945475;28;19981;-50
2022/04/24 04:07:22;;;;;;;;;;;;;;;10.36;61.09;96097.53;4946869;28;19970;-47
2022/04/24 04:09:50;;;;;;;;;;;;;;;10.53;60.62;96093.63;4941655;28;20326;-51
2022/04/24 04:12:18;;;;;;;;;;;;;;;10.41;61.13;96104.59;4942131;28;20307;-49
2022/04/24 04:14:55;;;;;;;;;;;;;;;10.56;60.55;96100.28;4945933;28;19926;-49
2022/04/24 04:17:24;;;;;;;;;;;;;;;10.45;60.69;96095.41;4944691;28;20004;-47
2022/04/24 04:19:52;;;;;;;;;;;;;;;10.56;60.43;96100.28;4946964;28;19927;-52
2022/04/24 04:22:26;;;;;;;;;;;;;;;10.59;60.53;96110.41;4950864;28;19930;-49
2022/04/24 04:24:54;;;;;;;;;;;;;;;10.38;61.30;96110.72;4944244;28;19966;-51
2022/04/24 04:27:25;;;;;;;;;;;;;;;10.37;61.24;96112.66;4947035;28;19927;-49
2022/04/24 04:29:54;;;;;;;;;;;;;;;10.26;61.87;96108.91;4943060;28;19927;-49
2022/04/24 04:32:24;;;;;;;;;;;;;;;10.18;62.74;96115.31;4946695;28;19956;-47
2022/04/24 04:34:51;;;;;;;;;;;;;;;10.28;62.30;96111.28;4946599;28;20048;-51
2022/04/24 04:37:19;;;;;;;;;;;;;;;10.41;62.18;96113.53;4943247;28;20272;-51
2022/04/24 04:39:47;;;;;;;;;;;;;;;10.53;62.45;96109.91;4944047;28;19990;-51
2022/04/24 04:42:16;;;;;;;;;;;;;;;10.62;63.27;96102.34;4947546;28;20019;-51
2022/04/24 04:44:44;;;;;;;;;;;;;;;10.58;63.58;96098.78;4948171;28;20347;-51
2022/04/24 04:47:12;;;;;;;;;;;;;;;10.53;64.10;96085.47;4947266;28;20259;-49
2022/04/24 04:49:41;;;;;;;;;;;;;;;10.52;66.33;96104.84;4944724;28;19934;-50
2022/04/24 04:52:08;;;;;;;;;;;;;;;10.70;66.34;96120.38;4944471;28;19926;-54
2022/04/24 04:54:42;;;;;;;;;;;;;;;10.80;66.21;96138.03;4944411;28;20353;-50
2022/04/24 04:57:10;;;;;;;;;;;;;;;10.75;66.21;96146.47;4933967;28;19936;-49
2022/04/24 04:59:38;;;;;;;;;;;;;;;10.72;67.08;96147.97;4939387;28;20014;-51
2022/04/24 05:02:06;;;;;;;;;;;;;;;10.68;67.80;96146.31;4935080;28;20423;-50
2022/04/24 05:04:34;;;;;;;;;;;;;;;10.72;67.20;96158.84;4942625;28;19934;-52
2022/04/24 05:07:03;;;;;;;;;;;;;;;10.80;66.85;96158.97;4944040;28;19926;-51
2022/04/24 05:09:31;;;;;;;;;;;;;;;10.86;67.49;96173.84;4951730;28;20449;-50
2022/04/24 05:11:58;;;;;;;;;;;;;;;10.48;68.14;96167.97;4947712;28;20402;-51
2022/04/24 05:14:26;;;;;;;;;;;;;;;10.50;67.95;96167.66;4949077;28;19930;-50
2022/04/24 05:16:54;;;;;;;;;;;;;;;10.44;67.94;96164.41;4940230;28;19927;-53
2022/04/24 05:19:22;;;;;;;;;;;;;;;10.42;68.74;96171.31;4964000;28;20014;-50
2022/04/24 05:21:50;;;;;;;;;;;;;;;10.48;67.69;96167.97;4936295;28;19931;-50
2022/04/24 05:27:37;;;;;;;;;;;;;;;10.51;67.59;96157.56;4945279;28;19926;-51
2022/04/24 05:30:07;;;;;;;;;;;;;;;10.47;67.86;96160.19;4948337;28;19926;-51
2022/04/24 05:32:39;;;;;;;;;;;;;;;10.65;67.58;96168.75;4948894;28;19944;-52
2022/04/24 05:35:07;;;;;;;;;;;;;;;10.44;67.88;96159.00;4949468;28;19961;-52
2022/04/24 05:37:35;;;;;;;;;;;;;;;10.42;68.81;96161.25;4951057;28;19995;-49
2022/04/24 05:40:06;;;;;;;;;;;;;;;10.39;69.14;96153.84;4949952;28;19954;-50
2022/04/24 05:42:34;;;;;;;;;;;;;;;10.32;69.53;96161.78;4949839;28;20338;-50
2022/04/24 05:45:04;;;;;;;;;;;;;;;10.31;69.28;96162.94;4946648;28;20409;-51
2022/04/24 05:47:32;;;;;;;;;;;;;;;10.44;68.12;96167.13;4945089;28;20363;-50
2022/04/24 05:49:59;;;;;;;;;;;;;;;10.25;69.09;96164.34;4944061;28;20362;-52
2022/04/24 05:52:28;;;;;;;;;;;;;;;10.30;69.25;96161.38;4948080;28;19948;-51
2022/04/24 05:54:56;;;;;;;;;;;;;;;10.57;69.36;96167.03;4949923;28;19989;-49
2022/04/24 05:57:25;;;;;;;;;;;;;;;10.47;69.25;96174.56;4946096;28;19927;-51
2022/04/24 05:59:53;;;;;;;;;;;;;;;10.38;69.36;96160.38;4947956;28;19974;-51
2022/04/24 06:02:21;;;;;;;;;;;;;;;10.40;68.69;96163.53;4950979;28;20463;-51
2022/04/24 06:05:14;;;;;;;;;;;;;;;10.36;68.72;96167.31;4944584;28;20321;-51
2022/04/24 06:08:05;;;;;;;;;;;;;;;10.36;69.06;96170.03;4941913;28;19926;-50
2022/04/24 06:10:35;;;;;;;;;;;;;;;10.26;68.88;96168.63;4949034;28;21264;-52
2022/04/24 06:13:28;;;;;;;;;;;;;;;10.28;68.77;96169.09;4946796;28;19926;-50
2022/04/24 06:15:58;;;;;;;;;;;;;;;10.23;69.65;96163.88;4940685;28;19950;-50
2022/04/24 06:18:26;;;;;;;;;;;;;;;10.14;70.18;96164.06;4942689;28;19930;-51
2022/04/24 06:20:53;;;;;;;;;;;;;;;10.19;70.24;96168.44;4942982;28;19927;-50
2022/04/24 06:23:21;;;;;;;;;;;;;;;10.36;71.14;96168.09;4945315;28;20458;-51
2022/04/24 06:25:49;;;;;;;;;;;;;;;10.58;70.50;96168.59;4945039;28;19948;-50
2022/04/24 06:28:22;;;;;;;;;;;;;;;10.50;71.02;96173.09;4949130;28;19993;-50
2022/04/24 06:30:51;;;;;;;;;;;;;;;10.45;70.69;96170.63;4946587;28;20017;-50
2022/04/24 06:33:21;;;;;;;;;;;;;;;10.41;70.21;96170.53;4951418;28;19930;-52
2022/04/24 06:35:49;;;;;;;;;;;;;;;10.36;70.56;96172.75;4949777;28;20021;-62
2022/04/24 06:38:22;;;;;;;;;;;;;;;10.34;70.22;96170.38;4941264;28;20240;-61
2022/04/24 06:41:14;;;;;;;;;;;;;;;10.51;69.84;96179.28;4951237;28;20294;-61
2022/04/24 06:43:42;;;;;;;;;;;;;;;10.58;70.37;96184.88;4945543;28;19927;-61
2022/04/24 06:46:10;;;;;;;;;;;;;;;10.71;70.28;96183.66;4943509;28;19927;-61
2022/04/24 06:48:39;;;;;;;;;;;;;;;10.72;69.86;96191.44;4947052;28;20033;-61
2022/04/24 06:51:09;;;;;;;;;;;;;;;10.67;69.70;96199.06;4945894;28;19966;-61
2022/04/24 06:53:38;;;;;;;;;;;;;;;10.66;70.29;96197.50;4943886;28;20296;-60
2022/04/24 06:56:08;;;;;;;;;;;;;;;10.87;70.49;96214.28;4945914;28;19927;-60
2022/04/24 06:58:36;;;;;;;;;;;;;;;10.86;70.16;96217.31;4956585;28;20385;-63
2022/04/24 07:01:09;;;;;;;;;;;;;;;10.73;71.25;96228.31;4940053;28;19930;-63
2022/04/24 07:03:37;;;;;;;;;;;;;;;10.68;71.57;96244.09;4945035;28;20021;-63
2022/04/24 07:06:09;;;;;;;;;;;;;;;10.66;71.55;96240.94;4932656;28;19991;-63
2022/04/24 07:08:38;;;;;;;;;;;;;;;10.68;72.27;96236.72;4946177;28;19930;-63
2022/04/24 07:11:10;;;;;;;;;;;;;;;10.70;72.50;96248.00;4945161;28;19926;-64
2022/04/24 07:13:38;;;;;;;;;;;;;;;10.80;72.43;96254.84;4943654;28;20277;-64
2022/04/24 07:16:07;;;;;;;;;;;;;;;10.75;71.67;96257.81;4938395;28;19976;-62
2022/04/24 07:18:35;;;;;;;;;;;;;;;10.83;72.25;96262.31;4942220;28;19926;-65
2022/04/24 07:21:03;;;;;;;;;;;;;;;10.88;72.03;96259.31;4938880;28;19941;-64
2022/04/24 07:23:58;;;;;;;;;;;;;;;10.81;71.82;96269.22;4932108;28;20643;-62
2022/04/24 07:27:17;;;;;;;;;;;;;;;10.99;72.19;96273.94;4936891;28;19934;-60
2022/04/24 07:32:40;;;;;;;;;;;;;;;10.89;72.23;96282.63;4939735;28;19926;-65
2022/04/24 07:35:09;;;;;;;;;;;;;;;10.76;72.07;96292.03;4941445;28;19926;-65
2022/04/24 07:37:38;;;;;;;;;;;;;;;10.90;71.65;96292.34;4945375;28;20001;-65
2022/04/24 07:40:06;;;;;;;;;;;;;;;11.10;71.32;96295.91;4935857;28;19931;-64
2022/04/24 07:42:45;;;;;;;;;;;;;;;10.92;71.52;96298.22;4936223;28;19926;-65
2022/04/24 07:45:17;;;;;;;;;;;;;;;10.82;71.82;96304.19;4943810;28;19969;-65
2022/04/24 07:48:07;;;;;;;;;;;;;;;10.86;70.35;96304.25;4937980;28;19930;-65
2022/04/24 07:50:35;;;;;;;;;;;;;;;10.70;69.83;96315.91;4946658;28;19930;-67
2022/04/24 07:53:03;;;;;;;;;;;;;;;10.82;69.18;96315.06;4944390;28;20026;-65
2022/04/24 07:55:31;;;;;;;;;;;;;;;10.79;67.30;96337.47;4946349;28;20024;-65
2022/04/24 07:58:00;;;;;;;;;;;;;;;10.30;66.61;96326.94;4943909;28;20008;-64
2022/04/24 08:00:29;;;;;;;;;;;;;;;10.34;67.75;96338.69;4942097;28;19938;-65
2022/04/24 08:02:58;;;;;;;;;;;;;;;10.33;66.99;96342.50;4942434;28;19982;-63
2022/04/24 08:05:26;;;;;;;;;;;;;;;10.23;67.33;96348.44;4942509;28;19937;-64
2022/04/24 08:07:55;;;;;;;;;;;;;;;10.24;66.36;96355.47;4947638;28;20384;-65
2022/04/24 08:10:23;;;;;;;;;;;;;;;10.44;66.86;96364.53;4947088;28;19927;-63
2022/04/24 08:12:51;;;;;;;;;;;;;;;10.36;67.22;96362.75;4944685;28;19985;-64
2022/04/24 08:15:20;;;;;;;;;;;;;;;10.44;66.26;96365.31;4945079;28;20033;-64
2022/04/24 08:17:49;;;;;;;;;;;;;;;10.39;67.51;96371.00;4945750;28;20025;-64
2022/04/24 08:20:18;;;;;;;;;;;;;;;10.41;66.78;96370.66;4940975;28;20348;-64
2022/04/24 08:22:46;;;;;;;;;;;;;;;10.72;66.87;96375.34;4941574;29;19934;-64
2022/04/24 08:25:15;;;;;;;;;;;;;;;10.45;66.74;96374.25;4938215;28;20004;-63
2022/04/24 08:27:43;;;;;;;;;;;;;;;10.36;66.95;96360.81;4943235;29;19942;-62
2022/04/24 08:30:13;;;;;;;;;;;;;;;10.58;65.97;96364.09;4943059;28;20231;-65
2022/04/24 08:32:42;;;;;;;;;;;;;;;10.46;66.25;96362.25;4945634;29;19938;-65
2022/04/24 08:35:11;;;;;;;;;;;;;;;10.26;65.79;96355.91;4938580;28;20409;-63
2022/04/24 08:37:39;;;;;;;;;;;;;;;10.30;65.62;96353.28;4941117;29;19937;-65
2022/04/24 08:40:08;;;;;;;;;;;;;;;10.31;65.01;96355.66;4938541;28;19970;-62
2022/04/24 08:42:38;;;;;;;;;;;;;;;10.25;65.55;96354.31;4959275;28;19934;-64
2022/04/24 08:45:07;;;;;;;;;;;;;;;9.76;66.94;96346.34;4956601;28;19958;-65
2022/04/24 08:47:34;;;;;;;;;;;;;;;10.06;66.87;96348.72;4966052;28;19936;-66
2022/04/24 08:50:08;;;;;;;;;;;;;;;10.15;65.43;96339.31;4951145;28;19964;-62
2022/04/24 08:52:37;;;;;;;;;;;;;;;10.12;66.74;96348.16;4957987;28;19926;-65
2022/04/24 08:55:30;;;;;;;;;;;;;;;10.04;66.56;96345.56;4964087;28;19934;-65
2022/04/24 08:57:59;;;;;;;;;;;;;;;10.36;66.87;96341.03;4957964;28;19933;-65
2022/04/24 09:00:27;;;;;;;;;;;;;;;10.50;65.67;96338.72;4949073;28;20022;-64
2022/04/24 09:02:57;;;;;;;;;;;;;;;10.23;66.16;96338.41;4949059;28;19931;-65
2022/04/24 09:05:28;;;;;;;;;;;;;;;9.92;66.79;96338.28;4947917;28;20410;-63
2022/04/24 09:08:05;;;;;;;;;;;;;;;10.10;66.23;96330.63;4955226;28;20305;-64
2022/04/24 09:10:54;;;;;;;;;;;;;;;10.18;65.29;96313.41;4967078;28;19926;-63
2022/04/24 09:13:26;;;;;;;;;;;;;;;10.36;66.53;96313.91;4969830;28;19965;-60
2022/04/24 09:15:55;;;;;;;;;;;;;;;10.38;65.98;96312.41;4966603;28;20000;-63
2022/04/24 09:18:23;;;;;;;;;;;;;;;10.27;66.53;96305.91;4960725;28;20405;-62
2022/04/24 09:20:55;;;;;;;;;;;;;;;10.12;65.50;96298.50;4949375;28;19942;-65
2022/04/24 09:23:33;;;;;;;;;;;;;;;10.04;66.41;96299.44;4955121;28;19986;-64
2022/04/24 09:26:28;;;;;;;;;;;;;;;9.76;66.18;96302.97;4958223;28;19926;-65
2022/04/24 09:29:13;;;;;;;;;;;;;;;10.25;66.26;96296.53;4951838;28;19941;-64
2022/04/24 09:31:44;;;;;;;;;;;;;;;10.46;65.11;96297.09;4950792;28;19944;-66
2022/04/24 09:34:12;;;;;;;;;;;;;;;10.56;65.62;96295.78;4950077;28;20321;-65
2022/04/24 09:36:41;;;;;;;;;;;;;;;10.77;65.25;96293.59;4949064;28;20336;-65
2022/04/24 09:39:12;;;;;;;;;;;;;;;10.60;65.68;96286.59;4949956;28;19931;-65
2022/04/24 09:41:40;;;;;;;;;;;;;;;10.37;65.99;96285.59;4960746;28;20025;-64
2022/04/24 09:44:11;;;;;;;;;;;;;;;10.58;65.75;96283.41;4967866;28;19989;-65
2022/04/24 09:46:39;;;;;;;;;;;;;;;10.99;63.57;96276.66;4954930;28;19926;-65
2022/04/24 09:49:08;;;;;;;;;;;;;;;11.08;63.64;96272.94;4974554;28;19953;-65
2022/04/24 09:51:39;;;;;;;;;;;;;;;11.24;62.97;96276.44;4957670;28;20394;-65
2022/04/24 09:54:08;;;;;;;;;;;;;;;11.22;62.50;96281.41;4963179;28;19926;-65
2022/04/24 09:56:36;;;;;;;;;;;;;;;11.41;63.12;96286.88;4952195;28;19930;-65
2022/04/24 09:59:05;;;;;;;;;;;;;;;11.46;63.26;96289.34;4953419;28;19930;-65
2022/04/24 10:01:35;;;;;;;;;;;;;;;11.19;63.34;96295.72;4959828;28;20314;-65
2022/04/24 10:04:03;;;;;;;;;;;;;;;11.63;62.17;96298.22;4971394;28;19926;-65
2022/04/24 10:06:31;;;;;;;;;;;;;;;12.13;62.88;96293.78;4968704;28;19981;-64
2022/04/24 10:08:59;;;;;;;;;;;;;;;12.09;59.11;96295.63;4958595;28;19966;-63
2022/04/24 10:11:28;;;;;;;;;;;;;;;12.05;61.44;96292.88;4960396;28;19926;-63
2022/04/24 10:13:59;;;;;;;;;;;;;;;12.03;59.72;96292.44;4955441;28;20268;-65
2022/04/24 10:16:33;;;;;;;;;;;;;;;11.98;59.79;96298.16;4960330;28;19954;-65
2022/04/24 10:19:03;;;;;;;;;;;;;;;12.52;59.29;96306.19;4965765;28;19988;-65
2022/04/24 10:21:48;;;;;;;;;;;;;;;12.47;60.09;96301.03;4964504;28;19930;-64
2022/04/24 10:24:41;;;;;;;;;;;;;;;12.75;59.34;96314.34;4956745;28;19945;-60
2022/04/24 10:27:38;;;;;;;;;;;;;;;12.90;60.84;96314.59;4965258;28;20021;-63
2022/04/24 10:30:10;;;;;;;;;;;;;;;13.14;59.25;96311.44;4962198;28;19930;-63
2022/04/24 10:32:39;;;;;;;;;;;;;;;13.27;59.77;96312.06;4964198;28;20302;-63
2022/04/24 10:35:17;;;;;;;;;;;;;;;13.42;59.00;96302.91;4965303;28;19930;-63
2022/04/24 10:37:47;;;;;;;;;;;;;;;13.18;57.94;96312.28;4957721;28;19934;-63
2022/04/24 10:40:16;;;;;;;;;;;;;;;13.27;58.62;96309.34;4951498;28;19986;-64
2022/04/24 10:42:45;;;;;;;;;;;;;;;13.51;58.92;96317.06;4953694;28;19926;-65
2022/04/24 10:45:14;;;;;;;;;;;;;;;13.49;59.60;96315.88;4951597;28;19978;-64
2022/04/24 10:47:43;;;;;;;;;;;;;;;13.37;59.01;96325.09;4959906;28;20025;-66
2022/04/24 10:50:11;;;;;;;;;;;;;;;13.11;60.22;96331.28;4950946;28;19930;-66
2022/04/24 10:52:42;;;;;;;;;;;;;;;13.17;58.46;96338.00;4963654;28;19930;-62
2022/04/24 10:55:12;;;;;;;;;;;;;;;13.19;58.29;96340.34;4948069;28;19933;-66
2022/04/24 10:57:41;;;;;;;;;;;;;;;13.27;59.81;96336.63;4963002;28;20343;-65
2022/04/24 11:00:16;;;;;;;;;;;;;;;13.16;59.32;96343.81;4954273;28;19930;-65
2022/04/24 11:02:44;;;;;;;;;;;;;;;13.11;58.38;96342.97;4955751;28;19926;-64
2022/04/24 11:05:12;;;;;;;;;;;;;;;13.08;58.43;96342.91;4946020;28;19933;-64
2022/04/24 11:07:40;;;;;;;;;;;;;;;12.52;60.17;96330.69;4964990;28;19933;-66
2022/04/24 11:10:09;;;;;;;;;;;;;;;12.62;60.67;96332.00;4960721;28;20414;-66
2022/04/24 11:12:37;;;;;;;;;;;;;;;12.76;61.88;96326.03;4957043;28;19934;-64
2022/04/24 11:15:06;;;;;;;;;;;;;;;12.75;60.04;96324.47;4957768;28;19926;-64
2022/04/24 11:17:35;;;;;;;;;;;;;;;12.89;60.33;96330.16;4957549;28;19974;-64
2022/04/24 11:20:06;;;;;;;;;;;;;;;12.97;60.28;96326.38;4962255;28;20025;-66
2022/04/24 11:22:36;;;;;;;;;;;;;;;12.99;60.19;96326.78;4963478;28;19981;-65
2022/04/24 11:25:04;;;;;;;;;;;;;;;13.19;60.21;96322.03;4958733;28;20251;-65
2022/04/24 11:27:32;;;;;;;;;;;;;;;13.11;59.99;96321.16;4960625;28;20327;-65
2022/04/24 11:33:05;;;;;;;;;;;;;;;13.11;59.85;96332.06;4962019;28;19936;-69
2022/04/24 11:35:36;;;;;;;;;;;;;;;12.98;59.17;96327.94;4962951;28;19981;-71
2022/04/24 11:38:04;;;;;;;;;;;;;;;12.97;59.93;96320.94;4960451;28;19926;-63
2022/04/24 11:43:24;;;;;;;;;;;;;;;12.69;61.48;96326.69;4957851;28;19984;-63
2022/04/24 11:51:31;;;;;;;;;;;;;;;12.55;62.06;96332.69;4953276;28;19937;-62
2022/04/24 11:54:07;;;;;;;;;;;;;;;12.12;63.03;96338.47;4953144;28;19935;-63
2022/04/24 11:56:37;;;;;;;;;;;;;;;12.09;62.54;96339.19;4954464;28;20013;-62
2022/04/24 11:59:11;;;;;;;;;;;;;;;12.04;62.81;96335.63;4955858;28;19973;-62
2022/04/24 12:01:39;;;;;;;;;;;;;;;11.82;64.53;96333.59;4936390;28;19935;-63
2022/04/24 12:04:08;;;;;;;;;;;;;;;12.22;63.26;96346.84;4955285;28;19981;-63
2022/04/24 12:06:36;;;;;;;;;;;;;;;12.31;62.21;96338.47;4955560;28;19965;-60
2022/04/24 12:09:07;;;;;;;;;;;;;;;12.22;63.14;96354.25;4953295;28;19934;-60
2022/04/24 12:11:35;;;;;;;;;;;;;;;12.38;62.66;96354.16;4956311;28;19930;-63
2022/04/24 12:17:01;;;;;;;;;;;;;;;12.55;62.39;96357.19;4953171;28;19929;-61
2022/04/24 12:19:53;;;;;;;;;;;;;;;12.56;60.91;96358.75;4964792;28;19926;-62
2022/04/24 12:22:29;;;;;;;;;;;;;;;12.46;61.10;96362.06;4960135;28;20213;-62
2022/04/24 12:25:06;;;;;;;;;;;;;;;12.40;61.72;96362.75;4957372;28;19934;-62
2022/04/24 12:27:37;;;;;;;;;;;;;;;12.43;61.68;96368.25;4958046;28;19973;-62
2022/04/24 12:30:09;;;;;;;;;;;;;;;12.22;63.28;96370.56;4958080;28;20350;-61
2022/04/24 12:32:38;;;;;;;;;;;;;;;12.11;64.52;96367.66;4948607;28;19933;-63
2022/04/24 12:35:06;;;;;;;;;;;;;;;11.83;65.62;96376.03;4962443;28;19933;-64
2022/04/24 12:37:35;;;;;;;;;;;;;;;11.96;66.06;96377.44;4962901;28;19981;-63
2022/04/24 12:40:04;;;;;;;;;;;;;;;12.00;65.42;96372.88;4956429;28;20259;-60
2022/04/24 12:42:32;;;;;;;;;;;;;;;11.99;66.44;96381.41;4953797;28;19962;-61
2022/04/24 12:44:59;;;;;;;;;;;;;;;11.81;66.24;96386.41;4955306;28;19926;-61
2022/04/24 12:47:27;;;;;;;;;;;;;;;11.87;66.61;96390.47;4958032;28;19930;-61
2022/04/24 12:50:20;;;;;;;;;;;;;;;11.78;66.88;96381.72;4965544;28;19927;-63
2022/04/24 12:52:49;;;;;;;;;;;;;;;11.96;65.94;96382.09;4956607;28;20439;-62
2022/04/24 12:55:18;;;;;;;;;;;;;;;12.05;66.41;96382.69;4955512;28;19926;-62
2022/04/24 12:57:45;;;;;;;;;;;;;;;12.10;66.03;96378.91;4951315;28;19997;-62
2022/04/24 13:00:14;;;;;;;;;;;;;;;11.86;65.58;96385.38;4956003;28;19930;-63
2022/04/24 13:02:43;;;;;;;;;;;;;;;12.04;65.49;96381.91;4961334;28;20440;-62
2022/04/24 13:05:11;;;;;;;;;;;;;;;12.03;64.89;96383.03;4954080;28;20017;-63
2022/04/24 13:07:39;;;;;;;;;;;;;;;11.78;66.81;96373.56;4955814;28;19927;-62
2022/04/24 13:10:11;;;;;;;;;;;;;;;11.83;66.58;96384.19;4958681;28;19934;-62
2022/04/24 13:12:38;;;;;;;;;;;;;;;11.90;66.07;96381.59;4955376;28;19930;-62
2022/04/24 13:15:07;;;;;;;;;;;;;;;11.66;66.83;96381.81;4966318;28;19926;-62
2022/04/24 13:20:20;;;;;;;;;;;;;;;11.68;66.80;96376.81;4957239;28;19937;-62
2022/04/24 13:23:08;;;;;;;;;;;;;;;11.52;68.13;96383.09;4953810;28;20022;-64
2022/04/24 13:25:38;;;;;;;;;;;;;;;11.43;69.47;96387.91;4966472;28;19930;-64
2022/04/24 13:28:06;;;;;;;;;;;;;;;11.48;68.90;96378.72;4959755;28;19926;-64
2022/04/24 13:30:35;;;;;;;;;;;;;;;11.58;67.86;96386.31;4965188;28;19933;-64
2022/04/24 13:33:04;;;;;;;;;;;;;;;11.74;67.05;96380.84;4969297;28;19927;-62
2022/04/24 13:35:32;;;;;;;;;;;;;;;11.67;67.37;96386.13;4967679;28;19989;-61
2022/04/24 13:38:18;;;;;;;;;;;;;;;11.84;67.61;96393.91;4967688;28;19941;-61